FW6582 Weather Reports


Display with metric or nautical units.
time (UTC)temp
F
wind
direction
speed
MPH
gust
MPH
rain 1hr
in
rain 24hr
in
rain mn
in
humidity
%
barometer
mb
20210926000017 82 68 1.0 3.0 0.00 0.00 0.00 17 1021.8
20210925234517 81 68 2.0 6.0 0.00 0.00 0.00 16 1021.4
20210925233016 81 68 4.0 9.0 0.00 0.00 0.00 16 1021.4
20210925231516 82 68 3.0 9.0 0.00 0.00 0.00 16 1021.5
20210925230017 82 45 4.0 9.0 0.00 0.00 0.00 15 1021.7
20210925224516 82 68 3.0 8.0 0.00 0.00 0.00 15 1021.7
20210925223016 82 45 4.0 10.0 0.00 0.00 0.00 16 1021.9
20210925221517 82 68 4.0 11.0 0.00 0.00 0.00 16 1022.1
20210925220016 82 68 4.0 10.0 0.00 0.00 0.00 15 1022.6
20210925214517 82 68 4.0 11.0 0.00 0.00 0.00 16 1022.9
20210925213016 82 68 5.0 12.0 0.00 0.00 0.00 16 1023.0
20210925211517 83 68 4.0 11.0 0.00 0.00 0.00 17 1023.8
20210925210017 82 68 5.0 13.0 0.00 0.00 0.00 16 1023.6
20210925204516 82 68 6.0 12.0 0.00 0.00 0.00 17 1023.8
20210925203017 81 68 6.0 13.0 0.00 0.00 0.00 17 1023.8
20210925201517 81 68 6.0 14.0 0.00 0.00 0.00 17 1024.4
20210925200016 81 158 4.0 11.0 0.00 0.00 0.00 17 1024.7
20210925194517 80 90 4.0 10.0 0.00 0.00 0.00 18 1024.8
20210925193016 80 113 4.0 13.0 0.00 0.00 0.00 17 1025.1
20210925191516 79 135 4.0 14.0 0.00 0.00 0.00 18 1025.7
20210925190016 79 113 5.0 15.0 0.00 0.00 0.00 17 1026.0
20210925184516 78 135 5.0 11.0 0.00 0.00 0.00 18 1026.3
20210925183016 77 90 5.0 13.0 0.00 0.00 0.00 19 1026.2
20210925181516 77 90 6.0 13.0 0.00 0.00 0.00 17 1026.9
20210925180017 77 113 5.0 10.0 0.00 0.00 0.00 19 1026.9
20210925174516 75 90 5.0 13.0 0.00 0.00 0.00 22 1027.1
20210925173016 75 90 5.0 10.0 0.00 0.00 0.00 23 1027.5
20210925171516 75 135 4.0 11.0 0.00 0.00 0.00 24 1027.8
20210925170017 74 113 3.0 9.0 0.00 0.00 0.00 25 1028.1
20210925164517 74 90 3.0 8.0 0.00 0.00 0.00 24 1028.2
20210925163016 73 90 3.0 8.0 0.00 0.00 0.00 24 1028.2
20210925161516 73 90 1.0 5.0 0.00 0.00 0.00 28 1028.4
20210925160016 73 23 1.0 4.0 0.00 0.00 0.00 31 1028.4
20210925154516 71 23 1.0 2.0 0.00 0.00 0.00 32 1028.4
20210925153016 69 23 2.0 4.0 0.00 0.00 0.00 36 1028.1
20210925151516 67 0.0 3.0 0.00 0.00 0.00 39 1027.9
20210925150016 63 0.0 1.0 0.00 0.00 0.00 46 1027.6
20210925144516 61 0.0 2.0 0.00 0.00 0.00 49 1027.3
20210925143017 58 0.0 1.0 0.00 0.00 0.00 52 1027.0
20210925141516 55 0.0 1.0 0.00 0.00 0.00 51 1026.5
20210925140016 52 23 1.0 2.0 0.00 0.00 0.00 64 1026.4
20210925134516 50 0.0 3.0 0.00 0.00 0.00 61 1026.4
20210925133016 48 23 1.0 3.0 0.00 0.00 0.00 61 1025.8
20210925131516 47 0.0 2.0 0.00 0.00 0.00 61 1025.6
20210925130016 46 23 1.0 3.0 0.00 0.00 0.00 65 1025.6
20210925124516 46 23 1.0 3.0 0.00 0.00 0.00 65 1025.9
20210925123016 46 23 1.0 3.0 0.00 0.00 0.00 64 1026.2
20210925121516 46 23 1.0 3.0 0.00 0.00 0.00 66 1026.5
20210925120017 46 23 1.0 3.0 0.00 0.00 0.00 64 1027.3
20210925114516 46 23 1.0 3.0 0.00 0.00 0.00 65 1027.3
20210925113016 46 23 1.0 3.0 0.00 0.00 0.00 67 1027.3
20210925111516 45 23 1.0 4.0 0.00 0.00 0.00 68 1027.3
20210925110016 45 23 1.0 3.0 0.00 0.00 0.00 68 1026.8
20210925104516 45 23 1.0 3.0 0.00 0.00 0.00 69 1026.8
20210925103016 45 23 1.0 4.0 0.00 0.00 0.00 69 1026.7
20210925101516 45 0.0 2.0 0.00 0.00 0.00 69 1026.6
20210925100016 46 23 1.0 3.0 0.00 0.00 0.00 67 1026.5
20210925094516 46 0.0 2.0 0.00 0.00 0.00 67 1026.5
20210925093016 46 23 1.0 3.0 0.00 0.00 0.00 67 1026.5
20210925091516 47 23 1.0 3.0 0.00 0.00 0.00 65 1026.5
20210925090016 47 23 1.0 3.0 0.00 0.00 0.00 65 1026.6
20210925084516 47 0.0 2.0 0.00 0.00 0.00 68 1026.3
20210925083016 47 23 1.0 3.0 0.00 0.00 0.00 68 1026.3
20210925081516 47 0.0 0.0 0.00 0.00 0.00 66 1026.5
20210925080016 47 0.0 0.0 0.00 0.00 0.00 67 1026.5
20210925074516 47 0.0 0.0 0.00 0.00 0.00 66 1026.6
20210925073016 48 23 1.0 2.0 0.00 0.00 0.00 65 1026.6
20210925071516 47 0.0 2.0 0.00 0.00 0.00 65 1026.7
20210925070016 48 23 1.0 2.0 0.00 0.00 0.00 64 1026.8
20210925064516 48 0.0 2.0 0.00 0.00 0.00 63 1026.5
20210925063016 48 23 1.0 2.0 0.00 0.00 0.00 63 1026.5
20210925061516 49 23 1.0 3.0 0.00 0.00 0.00 64 1026.7
20210925060016 49 23 1.0 3.0 0.00 0.00 0.00 64 1026.4
20210925054515 49 23 1.0 3.0 0.00 0.00 0.00 63 1026.8
20210925053015 50 0.0 2.0 0.00 0.00 0.00 61 1026.3
20210925051515 50 0.0 2.0 0.00 0.00 0.00 62 1026.8
20210925050015 50 0.0 3.0 0.00 0.00 0.00 59 1026.5
20210925044515 51 0.0 0.0 0.00 0.00 0.00 60 1026.7
20210925043015 51 0.0 0.0 0.00 0.00 0.00 59 1026.7
20210925041515 51 0.0 0.0 0.00 0.00 0.00 59 1026.7
20210925040015 51 0.0 2.0 0.00 0.00 0.00 58 1026.8
20210925034515 52 0.0 1.0 0.00 0.00 0.00 56 1027.1
20210925033015 52 0.0 0.0 0.00 0.00 0.00 57 1027.2
20210925031515 52 0.0 0.0 0.00 0.00 0.00 57 1027.0
20210925030015 53 0.0 0.0 0.00 0.00 0.00 55 1027.0
20210925024515 54 0.0 0.0 0.00 0.00 0.00 55 1027.0
20210925023015 55 0.0 0.0 0.00 0.00 0.00 52 1026.8
20210925021515 56 0.0 0.0 0.00 0.00 0.00 51 1025.8
20210925020015 57 0.0 0.0 0.00 0.00 0.00 48 1025.2
20210925014515 59 0.0 2.0 0.00 0.00 0.00 47 1025.1
20210925013015 60 0.0 1.0 0.00 0.00 0.00 45 1024.6
20210925011517 60 0.0 3.0 0.00 0.00 0.00 45 1024.7
20210925010017 61 23 1.0 3.0 0.00 0.00 0.00 44 1024.6
20210925004517 63 23 1.0 3.0 0.00 0.00 0.00 43 1024.8
20210925003017 66 23 1.0 7.0 0.00 0.00 0.00 40 1025.6
20210925001517 67 23 2.0 7.0 0.00 0.00 0.00 37 1025.9